createdAt,value
2018-06-25T00:02:03.150Z,17.70
2018-06-25T00:04:31.868Z,17.60
2018-06-25T00:07:00.426Z,17.60
2018-06-25T00:09:29.090Z,17.60
2018-06-25T00:11:57.789Z,17.50
2018-06-25T00:14:26.489Z,17.50
2018-06-25T00:16:55.023Z,17.50
2018-06-25T00:21:51.948Z,17.50
2018-06-25T00:24:20.577Z,17.40
2018-06-25T00:26:49.182Z,17.50
2018-06-25T00:29:17.744Z,17.50
2018-06-25T00:31:46.428Z,17.40
2018-06-25T00:34:15.027Z,17.40
2018-06-25T00:36:43.560Z,17.40
2018-06-25T00:39:12.905Z,17.40
2018-06-25T00:41:41.465Z,17.40
2018-06-25T00:44:10.125Z,17.40
2018-06-25T00:46:38.797Z,17.30
2018-06-25T00:49:08.578Z,17.30
2018-06-25T00:51:37.131Z,17.40
2018-06-25T00:54:06.211Z,17.30
2018-06-25T00:56:34.812Z,17.10
2018-06-25T00:59:14.782Z,17.10
2018-06-25T01:01:43.376Z,17.10
2018-06-25T01:04:11.961Z,17.10
2018-06-25T01:06:40.522Z,17.10
2018-06-25T01:09:10.914Z,17.10
2018-06-25T01:11:39.573Z,17.10
2018-06-25T01:14:08.170Z,17.10
2018-06-25T01:16:36.738Z,17.00
2018-06-25T01:19:05.541Z,17.00
2018-06-25T01:21:34.081Z,17.00
2018-06-25T01:24:03.078Z,17.10
2018-06-25T01:26:31.821Z,17.00
2018-06-25T01:29:00.407Z,17.00
2018-06-25T01:31:29.002Z,17.00
2018-06-25T01:33:57.631Z,17.00
2018-06-25T01:36:26.227Z,17.00
2018-06-25T01:38:54.869Z,17.00
2018-06-25T01:41:23.472Z,17.00
2018-06-25T01:43:52.103Z,17.00
2018-06-25T01:46:20.653Z,17.00
2018-06-25T01:48:49.240Z,17.00
2018-06-25T01:51:17.852Z,17.00
2018-06-25T01:53:46.428Z,16.90
2018-06-25T01:56:15.126Z,17.00
2018-06-25T01:58:43.730Z,16.90
2018-06-25T02:01:12.330Z,16.90
2018-06-25T02:03:40.919Z,16.80
2018-06-25T02:06:09.559Z,16.80
2018-06-25T02:08:38.157Z,16.90
2018-06-25T02:11:06.973Z,16.80
2018-06-25T02:13:35.715Z,16.80
2018-06-25T02:16:04.470Z,16.90
2018-06-25T02:18:33.134Z,16.80
2018-06-25T02:21:01.691Z,16.80
2018-06-25T02:23:30.272Z,16.70
2018-06-25T02:25:58.957Z,16.50
2018-06-25T02:28:27.635Z,16.50
2018-06-25T02:30:56.295Z,16.50
2018-06-25T02:33:24.935Z,16.50
2018-06-25T02:35:53.554Z,16.40
2018-06-25T02:38:22.093Z,16.40
2018-06-25T02:40:50.827Z,16.30
2018-06-25T02:43:19.376Z,16.20
2018-06-25T02:45:48.044Z,16.10
2018-06-25T02:48:16.661Z,16.00
2018-06-25T02:50:45.296Z,15.90
2018-06-25T02:53:13.916Z,15.90
2018-06-25T02:55:42.502Z,15.80
2018-06-25T02:58:11.177Z,15.80
2018-06-25T03:00:39.815Z,15.80
2018-06-25T03:03:08.379Z,15.80
2018-06-25T03:05:36.970Z,15.80
2018-06-25T03:08:05.835Z,15.80
2018-06-25T03:10:34.433Z,15.70
2018-06-25T03:13:03.051Z,15.60
2018-06-25T03:15:31.658Z,15.60
2018-06-25T03:18:00.291Z,15.60
2018-06-25T03:20:28.908Z,15.40
2018-06-25T03:22:57.522Z,15.30
2018-06-25T03:25:26.206Z,15.20
2018-06-25T03:27:54.845Z,15.20
2018-06-25T03:30:23.521Z,15.10
2018-06-25T03:32:52.161Z,15.00
2018-06-25T03:35:20.870Z,15.00
2018-06-25T03:37:49.468Z,15.10
2018-06-25T03:40:18.200Z,15.10
2018-06-25T03:42:47.071Z,15.10
2018-06-25T03:45:15.767Z,15.10
2018-06-25T03:47:44.336Z,15.00
2018-06-25T03:50:13.037Z,15.00
2018-06-25T03:52:41.624Z,14.90
2018-06-25T03:55:10.407Z,14.80
2018-06-25T03:57:39.053Z,14.90
2018-06-25T04:00:07.820Z,14.90
2018-06-25T04:02:36.321Z,15.10
2018-06-25T04:05:05.262Z,15.20
2018-06-25T04:07:33.925Z,15.20
2018-06-25T04:10:02.532Z,15.40
2018-06-25T04:12:31.126Z,15.40
2018-06-25T04:14:59.691Z,15.50
2018-06-25T04:17:28.258Z,15.50
2018-06-25T04:19:56.848Z,15.60
2018-06-25T04:22:25.471Z,15.70
2018-06-25T04:24:54.084Z,15.90
2018-06-25T04:27:22.874Z,16.10
2018-06-25T04:29:51.442Z,16.20
2018-06-25T04:32:20.086Z,16.30
2018-06-25T04:34:48.708Z,16.50
2018-06-25T04:37:17.282Z,16.60
2018-06-25T04:39:45.803Z,16.60
2018-06-25T04:42:14.418Z,16.70
2018-06-25T04:44:43.046Z,16.60
2018-06-25T04:47:11.670Z,16.60
2018-06-25T04:49:40.304Z,16.60
2018-06-25T04:52:08.927Z,16.60
2018-06-25T04:54:37.530Z,16.80
2018-06-25T04:57:06.143Z,16.80
2018-06-25T04:59:34.635Z,16.80
2018-06-25T05:02:03.327Z,16.80
2018-06-25T05:04:31.835Z,16.90
2018-06-25T05:07:00.496Z,16.90
2018-06-25T05:09:29.092Z,16.80
2018-06-25T05:11:57.713Z,16.80
2018-06-25T05:14:26.362Z,17.00
2018-06-25T05:16:55.053Z,17.00
2018-06-25T05:19:23.577Z,17.10
2018-06-25T05:21:52.188Z,17.20
2018-06-25T05:24:20.731Z,17.20
2018-06-25T05:26:49.385Z,17.20
2018-06-25T05:29:18.072Z,17.30
2018-06-25T05:31:46.593Z,17.50
2018-06-25T05:34:15.174Z,17.60
2018-06-25T05:36:43.782Z,17.80
2018-06-25T05:39:12.744Z,17.80
2018-06-25T05:41:42.206Z,18.00
2018-06-25T05:44:10.867Z,18.00
2018-06-25T05:46:39.590Z,18.00
2018-06-25T05:49:08.513Z,17.90
2018-06-25T05:51:37.066Z,17.90
2018-06-25T05:54:05.641Z,17.80
2018-06-25T05:56:34.246Z,17.80
2018-06-25T05:59:02.987Z,17.90
2018-06-25T06:01:31.527Z,18.00
2018-06-25T06:04:00.207Z,18.10
2018-06-25T06:06:28.842Z,18.00
2018-06-25T06:08:57.481Z,18.00
2018-06-25T06:11:26.139Z,18.00
2018-06-25T06:13:55.175Z,18.10
2018-06-25T06:16:23.856Z,18.40
2018-06-25T06:18:52.497Z,18.40
2018-06-25T06:21:21.105Z,18.50
2018-06-25T06:23:49.694Z,18.60
2018-06-25T06:26:18.376Z,18.80
2018-06-25T06:28:47.013Z,19.00
2018-06-25T06:31:15.620Z,19.20
2018-06-25T06:36:12.524Z,19.40
2018-06-25T06:38:41.175Z,19.70
2018-06-25T06:41:09.725Z,19.80
2018-06-25T06:43:38.253Z,19.90
2018-06-25T06:46:07.037Z,20.10
2018-06-25T06:48:35.634Z,20.40
2018-06-25T06:51:04.236Z,20.40
2018-06-25T06:53:32.811Z,20.50
2018-06-25T06:56:01.411Z,20.60
2018-06-25T06:58:30.031Z,20.60
2018-06-25T07:00:58.626Z,20.20
2018-06-25T07:03:27.298Z,20.10
2018-06-25T07:05:55.901Z,20.10
2018-06-25T07:08:24.543Z,20.00
2018-06-25T07:10:53.179Z,20.00
2018-06-25T07:13:21.890Z,20.00
2018-06-25T07:15:50.505Z,19.90
2018-06-25T07:18:19.165Z,19.80
2018-06-25T07:20:47.837Z,20.00
2018-06-25T07:23:16.569Z,20.00
2018-06-25T07:25:45.179Z,20.10
2018-06-25T07:28:13.817Z,20.10
2018-06-25T07:30:42.444Z,20.00
2018-06-25T07:33:11.082Z,19.90
2018-06-25T07:35:39.684Z,19.90
2018-06-25T07:38:08.340Z,20.00
2018-06-25T07:40:36.887Z,20.10
2018-06-25T07:43:06.247Z,20.10
2018-06-25T07:45:34.800Z,20.10
2018-06-25T07:48:03.506Z,20.20
2018-06-25T07:50:32.119Z,20.20
2018-06-25T07:53:00.745Z,20.10
2018-06-25T07:55:29.350Z,20.10
2018-06-25T07:57:57.963Z,20.30
2018-06-25T08:00:26.530Z,20.50
2018-06-25T08:02:55.189Z,20.60
2018-06-25T08:05:23.886Z,20.60
2018-06-25T08:07:52.545Z,20.50
2018-06-25T08:10:21.176Z,20.60
2018-06-25T08:12:49.829Z,20.70
2018-06-25T08:15:18.520Z,20.60
2018-06-25T08:17:47.161Z,20.60
2018-06-25T08:20:15.849Z,20.50
2018-06-25T08:22:44.552Z,20.30
2018-06-25T08:25:13.193Z,20.10
2018-06-25T08:27:41.769Z,20.10
2018-06-25T08:30:10.386Z,20.00
2018-06-25T08:32:39.034Z,20.20
2018-06-25T08:35:07.705Z,20.60
2018-06-25T08:37:36.431Z,20.70
2018-06-25T08:40:05.145Z,20.70
2018-06-25T08:42:33.724Z,20.70
2018-06-25T08:45:02.293Z,20.80
2018-06-25T08:47:30.843Z,20.90
2018-06-25T08:49:59.421Z,21.10
2018-06-25T08:52:28.090Z,21.20
2018-06-25T08:54:56.701Z,21.30
2018-06-25T08:57:25.241Z,21.30
2018-06-25T08:59:53.878Z,21.20
2018-06-25T09:02:22.444Z,21.20
2018-06-25T09:04:51.007Z,21.00
2018-06-25T09:07:19.635Z,21.00
2018-06-25T09:09:48.246Z,21.00
2018-06-25T09:12:16.891Z,21.20
2018-06-25T09:14:45.505Z,21.40
2018-06-25T09:17:14.127Z,21.60
2018-06-25T09:19:42.844Z,21.60
2018-06-25T09:22:11.413Z,21.70
2018-06-25T09:24:40.112Z,21.90
2018-06-25T09:27:08.708Z,21.90
2018-06-25T09:29:37.261Z,21.90
2018-06-25T09:32:05.856Z,22.00
2018-06-25T09:34:39.641Z,21.70
2018-06-25T09:37:08.239Z,21.40
2018-06-25T09:39:36.855Z,21.10
2018-06-25T09:42:05.523Z,21.10
2018-06-25T09:44:34.170Z,21.10
2018-06-25T09:47:02.825Z,21.30
2018-06-25T09:49:31.528Z,21.50
2018-06-25T09:52:00.054Z,21.80
2018-06-25T09:54:28.669Z,22.30
2018-06-25T09:56:57.226Z,22.10
2018-06-25T09:59:25.870Z,21.90
2018-06-25T10:01:54.462Z,21.70
2018-06-25T10:04:23.147Z,21.70
2018-06-25T10:06:51.635Z,21.70
2018-06-25T10:09:20.239Z,21.70
2018-06-25T10:11:48.830Z,21.40
2018-06-25T10:14:17.444Z,21.50
2018-06-25T10:16:46.014Z,21.60
2018-06-25T10:19:14.603Z,21.60
2018-06-25T10:21:43.179Z,22.00
2018-06-25T10:24:11.833Z,22.40
2018-06-25T10:26:40.423Z,22.90
2018-06-25T10:29:09.107Z,23.20
2018-06-25T10:31:37.724Z,23.40
2018-06-25T10:34:06.324Z,23.60
2018-06-25T10:36:34.944Z,23.50
2018-06-25T10:39:03.658Z,23.50
2018-06-25T10:41:32.290Z,23.60
2018-06-25T10:44:00.963Z,23.50
2018-06-25T10:46:29.496Z,23.10
2018-06-25T10:48:58.142Z,22.90
2018-06-25T10:51:26.753Z,22.80
2018-06-25T10:53:55.354Z,23.00
2018-06-25T10:56:23.895Z,23.30
2018-06-25T10:58:52.545Z,23.50
2018-06-25T11:01:21.197Z,23.80
2018-06-25T11:03:49.866Z,23.70
2018-06-25T11:06:18.488Z,23.70
2018-06-25T11:08:47.069Z,23.00
2018-06-25T11:11:15.749Z,22.70
2018-06-25T11:13:44.357Z,22.50
2018-06-25T11:16:12.942Z,22.40
2018-06-25T11:18:41.583Z,22.50
2018-06-25T11:21:10.202Z,22.50
2018-06-25T11:23:38.862Z,22.70
2018-06-25T11:26:07.421Z,23.00
2018-06-25T11:28:35.952Z,22.80
2018-06-25T11:31:04.571Z,22.60
2018-06-25T11:33:33.124Z,22.90
2018-06-25T11:36:01.699Z,23.20
2018-06-25T11:38:30.320Z,23.50
2018-06-25T11:40:58.909Z,23.50
2018-06-25T11:43:27.637Z,23.60
2018-06-25T11:45:56.241Z,23.70
2018-06-25T11:48:24.763Z,23.90
2018-06-25T11:50:53.556Z,23.90
2018-06-25T11:53:22.121Z,23.70
2018-06-25T11:55:50.751Z,23.50
2018-06-25T11:58:19.359Z,23.50
2018-06-25T12:00:47.982Z,23.70
2018-06-25T12:03:16.880Z,23.90
2018-06-25T12:05:45.274Z,24.10
2018-06-25T12:08:13.873Z,24.30
2018-06-25T12:10:42.584Z,24.30
2018-06-25T12:13:11.079Z,24.10
2018-06-25T12:15:39.598Z,24.40
2018-06-25T12:18:08.154Z,24.30
2018-06-25T12:20:36.890Z,24.30
2018-06-25T12:23:05.807Z,24.50
2018-06-25T12:25:34.295Z,24.70
2018-06-25T12:28:02.865Z,24.40
2018-06-25T12:30:31.453Z,24.40
2018-06-25T12:33:00.069Z,24.40
2018-06-25T12:35:28.689Z,24.30
2018-06-25T12:37:57.271Z,24.40
2018-06-25T12:40:25.925Z,24.70
2018-06-25T12:42:54.498Z,24.80
2018-06-25T12:45:23.132Z,25.00
2018-06-25T12:47:51.661Z,24.80
2018-06-25T12:50:20.277Z,24.70
2018-06-25T12:52:48.873Z,24.50
2018-06-25T12:55:17.519Z,24.20
2018-06-25T12:57:46.069Z,23.80
2018-06-25T13:00:14.848Z,23.70
2018-06-25T13:02:43.403Z,23.70
2018-06-25T13:05:12.139Z,23.60
2018-06-25T13:07:40.871Z,23.70
2018-06-25T13:10:09.475Z,24.20
2018-06-25T13:12:38.050Z,24.40
2018-06-25T13:15:06.659Z,24.60
2018-06-25T13:17:35.161Z,24.70
2018-06-25T13:20:03.977Z,24.60
2018-06-25T13:22:32.622Z,24.90
2018-06-25T13:25:01.278Z,25.20
2018-06-25T13:27:29.951Z,25.30
2018-06-25T13:29:58.568Z,25.30
2018-06-25T13:32:27.260Z,24.90
2018-06-25T13:34:55.958Z,24.80
2018-06-25T13:37:24.677Z,24.90
2018-06-25T13:39:53.302Z,25.20
2018-06-25T13:42:21.981Z,25.50
2018-06-25T13:44:50.603Z,25.50
2018-06-25T13:47:19.344Z,25.60
2018-06-25T13:49:47.954Z,25.40
2018-06-25T13:52:16.564Z,25.30
2018-06-25T13:54:45.119Z,25.40
2018-06-25T13:57:13.731Z,25.20
2018-06-25T13:59:42.362Z,25.20
2018-06-25T14:02:11.008Z,25.10
2018-06-25T14:04:39.610Z,25.00
2018-06-25T14:07:08.250Z,24.70
2018-06-25T14:09:36.912Z,24.30
2018-06-25T14:12:05.620Z,24.20
2018-06-25T14:14:34.241Z,24.20
2018-06-25T14:17:02.930Z,24.30
2018-06-25T14:19:31.529Z,24.40
2018-06-25T14:22:00.189Z,24.40
2018-06-25T14:24:34.242Z,24.30
2018-06-25T14:27:08.105Z,24.10
2018-06-25T14:29:36.701Z,24.00
2018-06-25T14:32:10.516Z,24.10
2018-06-25T14:34:39.779Z,24.20
2018-06-25T14:37:10.143Z,24.40
2018-06-25T14:39:38.745Z,24.70
2018-06-25T14:42:07.926Z,25.00
2018-06-25T14:47:04.807Z,25.00
2018-06-25T14:49:34.233Z,25.00
2018-06-25T14:52:02.812Z,25.10
2018-06-25T14:54:31.483Z,25.00
2018-06-25T14:57:00.147Z,25.00
2018-06-25T14:59:28.822Z,24.90
2018-06-25T15:01:57.476Z,25.10
2018-06-25T15:04:26.166Z,24.80
2018-06-25T15:06:54.882Z,24.60
2018-06-25T15:09:23.541Z,24.50
2018-06-25T15:11:52.111Z,24.20
2018-06-25T15:14:20.739Z,24.10
2018-06-25T15:16:49.396Z,24.10
2018-06-25T15:19:17.974Z,24.20
2018-06-25T15:21:46.644Z,24.40
2018-06-25T15:24:18.230Z,24.60
2018-06-25T15:26:47.003Z,24.90
2018-06-25T15:29:15.693Z,25.30
2018-06-25T15:31:44.464Z,25.30
2018-06-25T15:34:13.097Z,25.30
2018-06-25T15:36:41.769Z,25.50
2018-06-25T15:39:10.947Z,25.80
2018-06-25T15:41:40.098Z,25.80
2018-06-25T15:44:08.719Z,26.00
2018-06-25T15:46:37.395Z,25.70
2018-06-25T15:49:05.966Z,25.40
2018-06-25T15:51:34.574Z,25.50
2018-06-25T15:54:03.213Z,25.50
2018-06-25T15:56:31.742Z,25.60
2018-06-25T15:59:00.599Z,25.50
2018-06-25T16:01:29.272Z,25.10
2018-06-25T16:03:57.898Z,24.60
2018-06-25T16:06:26.564Z,24.40
2018-06-25T16:08:55.244Z,24.30
2018-06-25T16:11:23.775Z,24.30
2018-06-25T16:13:53.479Z,24.30
2018-06-25T16:16:22.075Z,24.30
2018-06-25T16:18:50.761Z,24.30
2018-06-25T16:21:19.342Z,24.60
2018-06-25T16:23:48.020Z,25.20
2018-06-25T16:26:16.595Z,25.70
2018-06-25T16:28:45.219Z,25.40
2018-06-25T16:31:13.952Z,24.90
2018-06-25T16:33:42.634Z,24.60
2018-06-25T16:36:11.236Z,24.50
2018-06-25T16:38:39.938Z,24.40
2018-06-25T16:41:08.666Z,24.90
2018-06-25T16:43:37.245Z,25.50
2018-06-25T16:46:06.890Z,26.00
2018-06-25T16:48:35.469Z,26.50
2018-06-25T16:51:04.343Z,27.60
2018-06-25T16:53:32.858Z,28.30
2018-06-25T16:56:01.468Z,28.50
2018-06-25T16:58:30.193Z,28.50
2018-06-25T17:00:58.807Z,28.70
2018-06-25T17:03:27.424Z,28.50
2018-06-25T17:05:56.026Z,28.40
2018-06-25T17:08:24.643Z,28.50
2018-06-25T17:10:53.407Z,28.70
2018-06-25T17:13:23.058Z,28.90
2018-06-25T17:15:51.802Z,29.00
2018-06-25T17:18:20.400Z,28.90
2018-06-25T17:20:48.969Z,28.70
2018-06-25T17:23:18.630Z,28.40
2018-06-25T17:25:47.274Z,28.30
2018-06-25T17:28:22.925Z,28.70
2018-06-25T17:30:51.642Z,28.80
2018-06-25T17:33:20.291Z,28.60
2018-06-25T17:35:48.997Z,28.20
2018-06-25T17:38:17.609Z,27.80
2018-06-25T17:40:46.322Z,27.10
2018-06-25T17:45:43.339Z,26.40
2018-06-25T17:48:14.009Z,26.00
2018-06-25T17:50:42.570Z,25.60
2018-06-25T17:53:11.224Z,25.40
2018-06-25T17:55:39.978Z,25.30
2018-06-25T17:58:12.619Z,25.60
2018-06-25T18:00:44.528Z,26.20
2018-06-25T18:05:41.558Z,27.70
2018-06-25T18:08:10.286Z,28.20
2018-06-25T18:10:45.065Z,28.60
2018-06-25T18:13:14.783Z,28.60
2018-06-25T18:15:43.482Z,28.60
2018-06-25T18:18:13.208Z,28.90
2018-06-25T18:23:16.606Z,28.40
2018-06-25T18:25:48.398Z,27.80
2018-06-25T18:28:17.177Z,27.00
2018-06-25T18:30:45.747Z,26.20
2018-06-25T18:33:14.359Z,25.60
2018-06-25T18:35:44.033Z,25.00
2018-06-25T18:38:12.732Z,24.50
2018-06-25T18:40:41.351Z,24.00
2018-06-25T18:43:10.157Z,23.80
2018-06-25T18:45:38.682Z,23.60
2018-06-25T18:48:07.371Z,23.30
2018-06-25T18:50:35.948Z,23.10
2018-06-25T18:53:04.692Z,22.80
2018-06-25T18:55:33.399Z,22.60
2018-06-25T18:58:02.048Z,22.50
2018-06-25T19:00:30.693Z,22.30
2018-06-25T19:02:59.413Z,22.10
2018-06-25T19:05:28.115Z,21.90
2018-06-25T19:07:57.767Z,21.70
2018-06-25T19:10:27.446Z,21.50
2018-06-25T19:12:56.046Z,21.40
2018-06-25T19:15:24.598Z,21.20
2018-06-25T19:17:53.403Z,21.00
2018-06-25T19:20:22.111Z,20.90
2018-06-25T19:22:50.761Z,20.80
2018-06-25T19:25:19.324Z,20.60
2018-06-25T19:27:47.892Z,20.40
2018-06-25T19:30:16.463Z,20.30
2018-06-25T19:32:45.008Z,20.20
2018-06-25T19:35:13.635Z,20.10
2018-06-25T19:37:42.302Z,19.90
2018-06-25T19:40:10.958Z,19.80
2018-06-25T19:42:41.625Z,19.60
2018-06-25T19:45:11.265Z,19.40
2018-06-25T19:47:39.801Z,19.20
2018-06-25T19:50:08.461Z,18.90
2018-06-25T19:52:40.227Z,18.60
2018-06-25T19:55:08.871Z,18.50
2018-06-25T19:57:37.474Z,18.20
2018-06-25T20:00:06.190Z,18.00
2018-06-25T20:02:34.829Z,17.80
2018-06-25T20:07:31.839Z,17.60
2018-06-25T20:10:00.443Z,17.30
2018-06-25T20:12:29.188Z,17.20
2018-06-25T20:14:57.759Z,17.10
2018-06-25T20:17:26.463Z,16.90
2018-06-25T20:19:55.242Z,16.70
2018-06-25T20:22:24.056Z,16.60
2018-06-25T20:24:52.582Z,16.50
2018-06-25T20:27:21.241Z,16.50
2018-06-25T20:29:49.877Z,16.60
2018-06-25T20:32:18.462Z,16.60
2018-06-25T20:34:47.194Z,16.60
2018-06-25T20:37:15.793Z,16.50
2018-06-25T20:39:44.419Z,16.30
2018-06-25T20:42:13.067Z,16.20
2018-06-25T20:44:41.702Z,16.00
2018-06-25T20:47:10.362Z,15.90
2018-06-25T20:49:39.015Z,15.90
2018-06-25T20:52:07.648Z,15.80
2018-06-25T20:54:36.243Z,15.80
2018-06-25T20:57:04.851Z,15.70
2018-06-25T20:59:33.483Z,15.60
2018-06-25T21:02:02.194Z,15.50
2018-06-25T21:04:30.832Z,15.40
2018-06-25T21:06:59.414Z,15.30
2018-06-25T21:09:28.068Z,15.30
2018-06-25T21:11:56.693Z,15.20
2018-06-25T21:14:25.231Z,15.10
2018-06-25T21:16:53.891Z,15.10
2018-06-25T21:19:22.579Z,15.10
2018-06-25T21:21:51.257Z,15.00
2018-06-25T21:24:19.910Z,15.00
2018-06-25T21:26:48.528Z,15.00
2018-06-25T21:29:17.199Z,14.90
2018-06-25T21:31:45.817Z,15.00
2018-06-25T21:34:14.440Z,15.10
2018-06-25T21:36:43.096Z,15.10
2018-06-25T21:39:11.706Z,15.20
2018-06-25T21:41:40.406Z,15.20
2018-06-25T21:44:09.005Z,15.20
2018-06-25T21:46:37.622Z,15.30
2018-06-25T21:49:06.301Z,15.20
2018-06-25T21:51:34.896Z,15.20
2018-06-25T21:54:03.917Z,15.20
2018-06-25T21:56:32.556Z,15.30
2018-06-25T21:59:01.193Z,15.30
2018-06-25T22:01:29.870Z,15.30
2018-06-25T22:03:58.488Z,15.30
2018-06-25T22:06:27.073Z,15.30
2018-06-25T22:08:55.619Z,15.30
2018-06-25T22:11:24.288Z,15.20
2018-06-25T22:13:52.875Z,15.30
2018-06-25T22:16:21.541Z,15.20
2018-06-25T22:18:50.206Z,15.10
2018-06-25T22:21:18.777Z,15.00
2018-06-25T22:23:47.487Z,14.90
2018-06-25T22:26:16.141Z,14.80
2018-06-25T22:28:44.849Z,14.70
2018-06-25T22:31:13.530Z,14.60
2018-06-25T22:33:42.130Z,14.50
2018-06-25T22:36:10.837Z,14.50
2018-06-25T22:38:39.451Z,14.40
2018-06-25T22:41:08.129Z,14.50
2018-06-25T22:43:36.844Z,14.40
2018-06-25T22:46:05.748Z,14.30
2018-06-25T22:48:34.299Z,14.20
2018-06-25T22:51:02.895Z,14.20
2018-06-25T22:53:31.476Z,14.10
2018-06-25T22:58:28.461Z,14.10
2018-06-25T23:00:57.069Z,14.10
2018-06-25T23:03:25.667Z,14.00
2018-06-25T23:05:54.227Z,14.00
2018-06-25T23:08:22.843Z,14.00
2018-06-25T23:10:51.512Z,14.00
2018-06-25T23:13:20.194Z,13.90
2018-06-25T23:15:48.752Z,13.90
2018-06-25T23:18:17.381Z,13.90
2018-06-25T23:20:46.101Z,13.90
2018-06-25T23:23:14.673Z,13.90
2018-06-25T23:25:43.303Z,13.80
2018-06-25T23:28:12.030Z,13.80
2018-06-25T23:30:40.657Z,13.80
2018-06-25T23:33:09.230Z,13.80
2018-06-25T23:35:37.796Z,13.80
2018-06-25T23:38:06.464Z,13.60
2018-06-25T23:40:35.040Z,13.50
2018-06-25T23:43:03.676Z,13.40
2018-06-25T23:45:32.358Z,13.30
2018-06-25T23:48:00.910Z,13.30
2018-06-25T23:50:29.520Z,13.30
2018-06-25T23:52:58.198Z,13.30
2018-06-25T23:55:26.746Z,13.40
2018-06-25T23:57:55.468Z,13.50
